Time;durP1;ratioP1;P1;durP2;ratioP2;P2;SDS_P1;SDS_P2;PMS_P1;PMS_P2;Temp;Humidity;BMP_temperature;BMP_pressure;BME280_temperature;BME280_humidity;BME280_pressure;Samples;Min_cycle;Max_cycle;Signal;HPM_P1;HPM_P2
2021/01/21 00:01:30;;;;;;;;;64.25;51.00;;;;;-12.69;58.74;102565.66;6155136;23;8841;-74
2021/01/21 00:04:26;;;;;;;;;76.25;64.00;;;;;-12.70;59.54;102563.97;6135692;23;8805;-74
2021/01/21 00:06:57;;;;;;;;;83.50;66.75;;;;;-12.59;58.98;102566.53;6164967;23;8790;-74
2021/01/21 00:09:52;;;;;;;;;83.50;68.50;;;;;-12.60;59.72;102564.84;6154862;23;8928;-75
2021/01/21 00:12:50;;;;;;;;;86.00;66.75;;;;;-12.39;59.28;102560.31;6135476;23;8833;-75
2021/01/21 00:15:45;;;;;;;;;87.25;67.25;;;;;-12.27;59.05;102565.53;6154784;23;8916;-75
2021/01/21 00:18:41;;;;;;;;;78.25;63.00;;;;;-12.40;59.62;102560.44;6135332;23;8834;-75
2021/01/21 00:21:10;;;;;;;;;81.25;65.50;;;;;-12.43;59.24;102552.69;6139621;23;8818;-75
2021/01/21 00:24:06;;;;;;;;;78.75;63.50;;;;;-12.48;59.48;102569.13;6155020;23;8797;-76
2021/01/21 00:27:01;;;;;;;;;84.75;65.50;;;;;-12.57;59.66;102555.72;6154790;23;8867;-76
2021/01/21 00:29:29;;;;;;;;;91.50;68.50;;;;;-12.39;60.22;102557.63;6156245;23;8995;-75
2021/01/21 00:32:24;;;;;;;;;70.25;48.25;;;;;-12.47;59.27;102541.47;6155966;23;8836;-75
2021/01/21 00:35:07;;;;;;;;;74.25;60.00;;;;;-12.28;59.19;102558.50;6132451;23;8817;-74
2021/01/21 00:37:36;;;;;;;;;60.25;51.50;;;;;-12.22;58.36;102540.13;6164713;23;8856;-74
2021/01/21 00:40:32;;;;;;;;;77.75;60.50;;;;;-12.20;59.23;102542.66;6154598;23;8805;-74
2021/01/21 00:43:27;;;;;;;;;72.00;60.00;;;;;-12.16;58.50;102533.44;6154108;23;8831;-76
2021/01/21 00:46:23;;;;;;;;;72.25;60.00;;;;;-12.29;59.02;102527.50;6154598;23;8818;-74
2021/01/21 00:49:00;;;;;;;;;75.50;63.25;;;;;-12.31;59.46;102521.47;6164672;23;8797;-74
2021/01/21 00:51:55;;;;;;;;;69.75;59.00;;;;;-12.25;60.02;102523.59;6135276;23;8816;-74
2021/01/21 00:54:51;;;;;;;;;65.25;56.25;;;;;-12.04;59.83;102521.63;6134997;23;8845;-74
2021/01/21 00:57:46;;;;;;;;;71.50;57.50;;;;;-12.12;60.07;102519.66;6135021;23;8832;-75
2021/01/21 01:00:42;;;;;;;;;63.25;54.00;;;;;-11.95;59.64;102525.31;6154575;23;8822;-75
2021/01/21 01:03:37;;;;;;;;;70.25;56.25;;;;;-11.89;60.60;102516.75;6134933;23;8927;-74
2021/01/21 01:06:13;;;;;;;;;73.00;59.50;;;;;-11.88;60.54;102516.63;6164175;23;8871;-74
2021/01/21 01:09:08;;;;;;;;;78.00;60.00;;;;;-11.78;60.40;102511.25;6153918;23;9508;-74
2021/01/21 01:11:36;;;;;;;;;75.25;57.50;;;;;-11.51;60.36;102522.06;6130357;23;8818;-73
2021/01/21 01:14:32;;;;;;;;;66.75;56.00;;;;;-11.65;60.36;102517.16;6155119;23;8843;-74
2021/01/21 01:17:28;;;;;;;;;79.25;63.25;;;;;-11.47;59.93;102514.63;6154073;23;8870;-75
2021/01/21 01:20:23;;;;;;;;;67.75;55.25;;;;;-11.41;59.99;102518.56;6154279;23;8805;-74
2021/01/21 01:23:19;;;;;;;;;66.75;53.50;;;;;-11.51;60.06;102523.88;6154038;23;8797;-74
2021/01/21 01:26:14;;;;;;;;;65.00;50.50;;;;;-11.38;60.07;102523.59;6154201;23;8810;-74
2021/01/21 01:29:10;;;;;;;;;69.25;59.75;;;;;-11.34;60.20;102519.69;6154254;23;8832;-75
2021/01/21 01:32:05;;;;;;;;;70.75;55.75;;;;;-11.48;61.03;102531.63;6134810;23;8832;-74
2021/01/21 01:34:33;;;;;;;;;78.50;56.75;;;;;-11.32;61.47;102526.56;6164039;23;8797;-74
2021/01/21 01:37:28;;;;;;;;;80.00;61.25;;;;;-11.07;61.29;102521.59;6134780;23;8993;-74
2021/01/21 01:39:56;;;;;;;;;95.00;69.75;;;;;-10.95;61.77;102529.28;6138187;23;8797;-74
2021/01/21 01:42:52;;;;;;;;;73.25;60.50;;;;;-11.05;61.79;102527.63;6153552;23;8813;-73
2021/01/21 01:45:19;;;;;;;;;76.50;58.25;;;;;-11.09;62.18;102519.06;6129573;23;8793;-73
2021/01/21 01:48:18;;;;;;;;;87.50;63.25;;;;;-10.80;61.78;102526.16;6153823;23;8825;-74
2021/01/21 01:51:13;;;;;;;;;79.25;64.25;;;;;-10.86;62.59;102521.38;6153957;23;9514;-75
2021/01/21 01:53:41;;;;;;;;;81.00;63.50;;;;;-10.85;63.03;102510.53;6163869;23;8912;-75
2021/01/21 01:56:37;;;;;;;;;77.75;61.00;;;;;-10.60;62.48;102514.38;6153552;23;8794;-75
2021/01/21 01:59:29;;;;;;;;;77.75;62.00;;;;;-10.59;62.80;102521.41;6156187;23;8794;-75
2021/01/21 02:02:24;;;;;;;;;75.00;60.75;;;;;-10.52;62.91;102509.13;6153782;23;8810;-76
2021/01/21 02:05:20;;;;;;;;;69.00;58.50;;;;;-10.51;63.40;102512.66;6153608;23;8801;-76
2021/01/21 02:08:24;;;;;;;;;87.00;69.00;;;;;-10.43;63.02;102507.41;6153570;23;8837;-75
2021/01/21 02:11:01;;;;;;;;;68.75;57.75;;;;;-10.32;62.92;102495.69;6163807;23;8855;-75
2021/01/21 02:14:03;;;;;;;;;70.00;59.00;;;;;-10.24;63.40;102498.44;6153923;23;8872;-76
2021/01/21 02:16:57;;;;;;;;;69.00;55.00;;;;;-10.01;63.28;102491.63;6163380;23;8810;-75
2021/01/21 02:20:10;;;;;;;;;69.50;54.00;;;;;-10.09;63.27;102492.41;6132664;23;8813;-75
2021/01/21 02:23:17;;;;;;;;;66.00;55.00;;;;;-10.17;63.66;102491.47;6138121;23;8798;-76
2021/01/21 02:26:03;;;;;;;;;78.50;59.00;;;;;-9.89;63.64;102494.91;6120264;23;8813;-75
2021/01/21 02:29:20;;;;;;;;;56.50;48.75;;;;;-9.93;63.94;102493.56;6153837;23;8810;-75
2021/01/21 02:32:37;;;;;;;;;69.25;57.00;;;;;-9.67;63.31;102504.34;6153882;23;8801;-76
2021/01/21 02:35:32;;;;;;;;;68.75;55.75;;;;;-9.57;63.49;102507.78;6153733;23;8840;-75
2021/01/21 02:38:31;;;;;;;;;69.00;55.00;;;;;-9.61;63.88;102511.75;6153590;23;8805;-76
2021/01/21 02:41:27;;;;;;;;;68.00;55.00;;;;;-9.53;63.11;102507.31;6153351;23;8988;-75
2021/01/21 02:44:28;;;;;;;;;68.25;56.25;;;;;-9.52;63.34;102500.94;6153468;23;9631;-75
2021/01/21 02:47:11;;;;;;;;;74.50;61.00;;;;;-9.33;63.10;102524.06;6154966;23;8814;-76
2021/01/21 02:50:09;;;;;;;;;83.50;64.25;;;;;-9.31;63.16;102510.50;6152427;23;8817;-75
2021/01/21 02:53:05;;;;;;;;;70.50;58.50;;;;;-9.44;63.67;102518.09;6153725;23;8801;-75
2021/01/21 02:56:06;;;;;;;;;82.00;62.75;;;;;-9.39;64.35;102508.59;6153612;23;8805;-75
2021/01/21 02:58:37;;;;;;;;;69.50;57.50;;;;;-9.22;64.13;102500.69;6163499;23;8888;-75
2021/01/21 03:01:36;;;;;;;;;59.00;44.50;;;;;-9.35;63.99;102501.94;6133849;23;8817;-75
2021/01/21 03:04:33;;;;;;;;;74.50;60.75;;;;;-9.20;64.18;102502.22;6153243;23;8774;-75
2021/01/21 03:07:02;;;;;;;;;72.00;59.50;;;;;-9.17;63.96;102507.25;6163935;23;8837;-76
2021/01/21 03:09:58;;;;;;;;;71.50;58.25;;;;;-9.10;64.25;102499.44;6135507;23;8810;-75
2021/01/21 03:12:41;;;;;;;;;68.25;58.00;;;;;-8.91;64.32;102499.22;6142984;23;8845;-76
2021/01/21 03:15:36;;;;;;;;;71.00;56.25;;;;;-8.83;64.09;102491.22;6155465;23;8877;-76
2021/01/21 03:18:33;;;;;;;;;59.00;50.25;;;;;-8.79;64.00;102495.28;6155365;23;8830;-76
2021/01/21 03:21:00;;;;;;;;;75.50;57.75;;;;;-8.75;64.28;102483.22;6165256;23;8794;-76
2021/01/21 03:23:56;;;;;;;;;71.50;59.00;;;;;-8.75;63.95;102485.06;6155577;23;8801;-76
2021/01/21 03:26:51;;;;;;;;;78.25;63.50;;;;;-8.80;64.11;102485.56;6155148;23;8833;-76
2021/01/21 03:29:47;;;;;;;;;70.00;57.00;;;;;-8.72;64.08;102488.28;6155231;23;8821;-76
2021/01/21 03:32:42;;;;;;;;;75.25;60.00;;;;;-8.70;64.31;102478.22;6135955;23;8805;-76
2021/01/21 03:35:11;;;;;;;;;76.00;64.00;;;;;-8.74;64.13;102489.41;6165201;23;9566;-76
2021/01/21 03:37:40;;;;;;;;;69.75;59.00;;;;;-8.59;63.91;102495.03;6165494;23;8794;-76
2021/01/21 03:40:35;;;;;;;;;75.00;61.00;;;;;-8.59;63.98;102501.22;6155062;23;8806;-76
2021/01/21 03:43:31;;;;;;;;;66.75;55.75;;;;;-8.52;63.78;102498.75;6135512;23;9577;-76
2021/01/21 03:46:27;;;;;;;;;77.25;62.75;;;;;-8.70;64.98;102496.16;6154995;23;8810;-76
2021/01/21 03:48:55;;;;;;;;;72.75;60.00;;;;;-8.52;63.98;102493.38;6139722;23;8797;-75
2021/01/21 03:51:50;;;;;;;;;69.00;55.50;;;;;-8.46;64.06;102480.16;6155038;23;8884;-75
2021/01/21 03:54:46;;;;;;;;;53.50;47.50;;;;;-8.48;64.51;102498.28;6155299;23;8906;-75
2021/01/21 03:57:41;;;;;;;;;81.50;61.25;;;;;-8.32;63.84;102478.66;6154906;23;8833;-75
2021/01/21 04:00:37;;;;;;;;;62.50;52.25;;;;;-8.41;63.88;102471.63;6155243;23;9612;-75
2021/01/21 04:03:32;;;;;;;;;71.50;59.50;;;;;-8.35;63.99;102470.16;6155573;23;9528;-75
2021/01/21 04:06:28;;;;;;;;;67.00;56.25;;;;;-8.37;63.79;102481.03;6135167;23;8832;-75
2021/01/21 04:09:23;;;;;;;;;74.75;59.50;;;;;-8.36;63.94;102484.53;6154875;23;8814;-76
2021/01/21 04:12:19;;;;;;;;;72.50;59.00;;;;;-8.39;64.03;102488.41;6154715;23;8896;-76
2021/01/21 04:15:15;;;;;;;;;77.00;60.50;;;;;-8.25;63.59;102485.06;6154593;23;8868;-76
2021/01/21 04:18:10;;;;;;;;;78.00;62.50;;;;;-8.43;64.58;102492.44;6154376;23;9554;-75
2021/01/21 04:21:06;;;;;;;;;86.25;65.50;;;;;-8.37;64.55;102494.44;6154774;23;8820;-76
2021/01/21 04:24:01;;;;;;;;;72.75;57.75;;;;;-8.31;64.53;102477.66;6135358;23;8841;-76
2021/01/21 04:26:57;;;;;;;;;72.50;57.50;;;;;-8.29;65.08;102489.06;6154322;23;8809;-73
2021/01/21 04:29:25;;;;;;;;;53.75;47.25;;;;;-8.26;65.11;102486.09;6156317;23;9543;-73
2021/01/21 04:32:20;;;;;;;;;52.50;46.25;;;;;-8.32;65.35;102477.84;6154948;23;8809;-75
2021/01/21 04:34:49;;;;;;;;;59.50;48.75;;;;;-8.32;65.84;102470.63;6139217;23;8809;-75
2021/01/21 04:37:45;;;;;;;;;71.00;55.50;;;;;-8.12;65.62;102463.97;6154509;23;8810;-74
2021/01/21 04:40:13;;;;;;;;;73.25;58.25;;;;;-8.00;65.55;102474.38;6138935;23;9542;-74
2021/01/21 04:43:09;;;;;;;;;73.50;60.25;;;;;-7.99;65.32;102484.97;6154485;23;8931;-75
2021/01/21 04:45:55;;;;;;;;;76.00;62.25;;;;;-7.79;65.37;102479.28;6156834;23;8801;-74
2021/01/21 04:48:40;;;;;;;;;79.75;59.00;;;;;-7.80;65.21;102483.00;6133944;23;8797;-74
2021/01/21 04:51:07;;;;;;;;;89.00;67.50;;;;;-7.86;65.60;102473.75;6164768;23;8809;-74
2021/01/21 04:54:04;;;;;;;;;66.25;53.75;;;;;-7.74;65.59;102483.19;6154735;23;8812;-74
2021/01/21 04:57:03;;;;;;;;;79.00;60.50;;;;;-7.90;65.63;102478.63;6154494;23;8802;-74
2021/01/21 04:59:46;;;;;;;;;72.25;56.50;;;;;-7.87;66.12;102498.94;6155985;23;8829;-75
2021/01/21 05:02:44;;;;;;;;;75.75;59.75;;;;;-7.67;65.81;102468.03;6134823;23;8844;-75
2021/01/21 05:05:40;;;;;;;;;67.00;52.00;;;;;-7.58;65.36;102469.75;6154409;23;8809;-74
2021/01/21 05:08:36;;;;;;;;;81.50;65.00;;;;;-7.57;65.78;102490.22;6154281;23;8816;-74
2021/01/21 05:11:32;;;;;;;;;85.25;65.50;;;;;-7.45;65.51;102497.94;6153562;23;8817;-74
2021/01/21 05:14:29;;;;;;;;;73.50;62.00;;;;;-7.55;65.53;102484.69;6154353;23;8793;-75
2021/01/21 05:17:25;;;;;;;;;65.75;56.25;;;;;-7.32;64.20;102498.28;6153938;23;8824;-74
2021/01/21 05:20:25;;;;;;;;;81.00;65.25;;;;;-7.40;64.97;102480.31;6134848;23;8836;-76
2021/01/21 05:23:07;;;;;;;;;80.25;63.75;;;;;-7.40;65.53;102492.91;6154614;23;8848;-76
2021/01/21 05:26:03;;;;;;;;;89.50;66.50;;;;;-7.45;65.46;102488.03;6134795;23;8806;-74
2021/01/21 05:29:00;;;;;;;;;84.75;65.50;;;;;-7.50;66.69;102484.19;6153888;23;9527;-76
2021/01/21 05:31:55;;;;;;;;;82.00;63.25;;;;;-7.31;66.55;102508.88;6154153;23;8809;-75
2021/01/21 05:34:23;;;;;;;;;68.25;54.75;;;;;-7.28;66.30;102513.94;6138380;23;8790;-75
2021/01/21 05:36:51;;;;;;;;;83.75;63.00;;;;;-7.16;65.92;102506.34;6163789;23;8829;-75
2021/01/21 05:39:51;;;;;;;;;75.50;60.00;;;;;-7.16;65.77;102519.78;6152201;23;8813;-75
2021/01/21 05:42:18;;;;;;;;;76.25;60.00;;;;;-7.28;66.26;102510.41;6158652;23;8801;-75
2021/01/21 05:45:18;;;;;;;;;65.00;52.50;;;;;-7.03;66.11;102501.28;6153512;23;8840;-75
2021/01/21 05:48:13;;;;;;;;;67.50;55.50;;;;;-7.07;66.11;102512.53;6153426;23;8786;-75
2021/01/21 05:51:10;;;;;;;;;69.75;56.25;;;;;-6.95;65.94;102507.66;6153998;23;8826;-75
2021/01/21 05:53:39;;;;;;;;;74.50;63.25;;;;;-7.02;65.95;102518.25;6164095;23;8822;-75
2021/01/21 05:56:11;;;;;;;;;79.50;64.00;;;;;-6.77;65.52;102527.97;6163578;23;8806;-75
2021/01/21 05:58:39;;;;;;;;;75.50;63.25;;;;;-6.83;65.55;102525.94;6137977;23;9476;-75
2021/01/21 06:01:35;;;;;;;;;80.50;66.00;;;;;-6.64;65.50;102526.59;6154937;23;9536;-75
2021/01/21 06:04:17;;;;;;;;;79.50;61.25;;;;;-6.58;65.29;102526.75;6132001;23;8809;-75
2021/01/21 06:07:20;;;;;;;;;74.00;62.00;;;;;-6.34;65.32;102530.38;6152046;23;8908;-74
2021/01/21 06:09:49;;;;;;;;;80.50;64.50;;;;;-6.35;65.91;102528.69;6164010;23;8805;-73
2021/01/21 06:12:45;;;;;;;;;78.50;63.75;;;;;-6.26;65.60;102528.47;6153403;23;8809;-75
2021/01/21 06:15:41;;;;;;;;;79.50;64.25;;;;;-6.18;65.62;102514.97;6152418;23;9640;-74
2021/01/21 06:18:23;;;;;;;;;85.50;66.25;;;;;-6.14;65.58;102528.91;6154809;23;8828;-75
2021/01/21 06:20:52;;;;;;;;;88.00;68.00;;;;;-6.09;65.61;102520.31;6163520;23;8858;-74
2021/01/21 06:23:24;;;;;;;;;82.00;65.00;;;;;-5.99;65.46;102516.38;6163477;23;8790;-75
2021/01/21 06:26:22;;;;;;;;;78.50;62.00;;;;;-5.91;65.47;102521.72;6153391;23;8907;-74
2021/01/21 06:29:19;;;;;;;;;83.25;66.00;;;;;-5.81;65.61;102521.50;6153279;23;8887;-74
2021/01/21 06:32:17;;;;;;;;;78.50;64.50;;;;;-5.78;65.80;102522.97;6152876;23;8832;-74
2021/01/21 06:35:08;;;;;;;;;65.00;49.25;;;;;-5.70;65.50;102517.53;6155534;23;8802;-75
2021/01/21 06:37:37;;;;;;;;;83.75;63.75;;;;;-5.71;65.73;102526.63;6163030;23;8798;-74
2021/01/21 06:40:34;;;;;;;;;82.00;63.75;;;;;-5.57;65.54;102525.88;6153398;23;8813;-74
2021/01/21 06:43:39;;;;;;;;;67.75;52.50;;;;;-5.43;65.81;102516.16;6153113;23;8806;-74
2021/01/21 06:46:35;;;;;;;;;76.75;63.50;;;;;-5.35;65.35;102529.59;6152651;23;8832;-74
2021/01/21 06:49:30;;;;;;;;;77.75;60.50;;;;;-5.41;65.91;102527.59;6153733;23;8876;-74
2021/01/21 06:52:10;;;;;;;;;84.75;66.00;;;;;-5.31;65.22;102520.94;6163253;23;8805;-74
2021/01/21 06:55:11;;;;;;;;;80.00;64.00;;;;;-5.12;65.28;102534.97;6152978;23;8888;-74
2021/01/21 06:57:43;;;;;;;;;85.50;64.50;;;;;-5.14;65.04;102534.28;6162777;23;8873;-75
2021/01/21 07:00:45;;;;;;;;;91.25;68.50;;;;;-5.13;65.15;102526.03;6153248;23;8813;-74
2021/01/21 07:03:41;;;;;;;;;87.00;66.75;;;;;-5.12;65.70;102533.09;6133293;23;8891;-74
2021/01/21 07:06:49;;;;;;;;;79.50;63.50;;;;;-5.23;65.87;102535.38;6157926;23;8802;-75
2021/01/21 07:09:46;;;;;;;;;82.50;64.75;;;;;-5.04;65.79;102534.88;6153352;23;8782;-74
2021/01/21 07:12:15;;;;;;;;;75.00;62.50;;;;;-4.95;65.57;102528.38;6154663;23;8809;-74
2021/01/21 07:14:45;;;;;;;;;84.00;63.00;;;;;-4.92;65.51;102528.00;6163172;23;8786;-74
2021/01/21 07:17:41;;;;;;;;;77.00;62.25;;;;;-4.85;65.67;102528.94;6153518;23;9011;-73
2021/01/21 07:20:59;;;;;;;;;88.00;69.00;;;;;-4.71;65.61;102532.69;6153263;23;8837;-74
2021/01/21 07:23:42;;;;;;;;;85.25;68.50;;;;;-4.78;65.82;102529.06;6129251;23;8797;-73
2021/01/21 07:26:30;;;;;;;;;87.75;68.50;;;;;-4.65;65.69;102528.44;6162456;23;8809;-74
2021/01/21 07:29:35;;;;;;;;;91.50;70.50;;;;;-4.58;64.92;102534.78;6133642;23;8810;-74
2021/01/21 07:32:31;;;;;;;;;84.75;67.00;;;;;-4.44;65.33;102533.09;6133160;23;8955;-74
2021/01/21 07:35:32;;;;;;;;;86.25;69.00;;;;;-4.31;65.69;102535.97;6133142;23;8818;-74
2021/01/21 07:38:40;;;;;;;;;89.75;71.00;;;;;-4.34;65.81;102533.66;6131992;23;8876;-75
2021/01/21 07:41:42;;;;;;;;;88.50;69.00;;;;;-4.23;65.21;102530.47;6133667;23;8820;-73
2021/01/21 07:44:58;;;;;;;;;91.25;71.50;;;;;-4.18;65.67;102536.16;6133539;23;9627;-75
2021/01/21 07:47:36;;;;;;;;;88.75;67.50;;;;;-3.97;65.66;102521.88;6128907;23;8848;-74
2021/01/21 07:50:33;;;;;;;;;84.25;66.25;;;;;-3.79;64.88;102532.25;6152650;23;8837;-74
2021/01/21 07:53:29;;;;;;;;;76.75;60.75;;;;;-3.77;65.00;102527.47;6133914;23;8802;-74
2021/01/21 07:56:25;;;;;;;;;67.25;55.25;;;;;-3.67;64.84;102520.75;6154088;23;8821;-74
2021/01/21 07:59:02;;;;;;;;;73.25;59.50;;;;;-3.75;65.40;102523.56;6165923;23;8817;-74
2021/01/21 08:01:30;;;;;;;;;61.00;52.00;;;;;-3.60;65.02;102537.06;6139344;23;8798;-74
2021/01/21 08:04:05;;;;;;;;;67.00;55.00;;;;;-3.56;64.98;102527.50;6139114;23;8797;-74
2021/01/21 08:07:01;;;;;;;;;66.25;54.75;;;;;-3.40;64.73;102531.81;6154412;23;8905;-74
2021/01/21 08:09:28;;;;;;;;;71.00;54.00;;;;;-3.38;64.20;102522.47;6164394;23;9504;-74
2021/01/21 08:11:56;;;;;;;;;63.50;50.50;;;;;-3.32;64.33;102518.16;6164677;23;8793;-74
2021/01/21 08:14:51;;;;;;;;;63.25;53.50;;;;;-3.28;64.72;102529.47;6135252;23;8838;-74
2021/01/21 08:17:41;;;;;;;;;64.50;52.50;;;;;-3.34;64.28;102525.66;6156212;23;8833;-73
2021/01/21 08:20:13;;;;;;;;;67.25;55.00;;;;;-3.20;64.92;102526.63;6164678;23;8789;-73
2021/01/21 08:22:58;;;;;;;;;75.25;57.75;;;;;-3.23;64.60;102535.94;6164451;23;8802;-73
2021/01/21 08:25:29;;;;;;;;;47.25;44.25;;;;;-3.05;63.33;102529.25;6164408;23;8805;-73
2021/01/21 08:27:57;;;;;;;;;57.75;50.25;;;;;-3.00;64.24;102537.59;6164238;23;8813;-73
2021/01/21 08:30:52;;;;;;;;;63.75;53.00;;;;;-2.92;63.64;102532.88;6154467;23;8818;-74
2021/01/21 08:33:51;;;;;;;;;71.50;57.00;;;;;-2.82;63.13;102516.31;6154436;23;8836;-74
2021/01/21 08:36:41;;;;;;;;;60.00;51.50;;;;;-2.91;64.21;102515.63;6156528;23;8809;-74
2021/01/21 08:39:24;;;;;;;;;76.00;63.50;;;;;-2.91;63.48;102503.94;6155808;23;8832;-73
2021/01/21 08:41:52;;;;;;;;;58.25;51.00;;;;;-2.88;64.18;102498.13;6135522;23;8837;-73
2021/01/21 08:44:19;;;;;;;;;72.75;52.25;;;;;-2.82;63.96;102495.47;6163696;23;8797;-73
2021/01/21 08:47:15;;;;;;;;;65.75;53.50;;;;;-2.59;63.47;102497.06;6153100;23;8818;-72
2021/01/21 08:49:51;;;;;;;;;66.25;52.50;;;;;-2.57;63.28;102495.00;6162869;23;8888;-73
2021/01/21 08:52:33;;;;;;;;;74.50;58.00;;;;;-2.60;62.35;102498.94;6154660;23;8813;-74
2021/01/21 08:55:00;;;;;;;;;73.50;53.50;;;;;-2.48;62.81;102499.22;6154695;23;8798;-73
2021/01/21 08:58:01;;;;;;;;;47.75;45.00;;;;;-2.37;62.64;102497.81;6134328;23;8817;-72
2021/01/21 09:01:09;;;;;;;;;66.50;56.00;;;;;-2.28;62.57;102510.16;6153278;23;8880;-74
2021/01/21 09:04:21;;;;;;;;;67.00;55.00;;;;;-2.28;62.32;102510.16;6153382;23;8845;-74
2021/01/21 09:06:54;;;;;;;;;77.50;58.50;;;;;-2.24;62.23;102504.13;6137060;23;8925;-73
2021/01/21 09:09:50;;;;;;;;;68.75;57.50;;;;;-2.08;61.38;102491.25;6133649;23;8896;-73
2021/01/21 09:12:20;;;;;;;;;57.00;51.50;;;;;-1.99;60.67;102493.59;6163102;23;8801;-73
2021/01/21 09:15:09;;;;;;;;;44.75;40.25;;;;;-2.30;60.82;102501.38;6164052;23;8797;-74
2021/01/21 09:17:39;;;;;;;;;66.25;53.25;;;;;-2.28;61.05;102497.44;6164156;23;8793;-73
2021/01/21 09:20:27;;;;;;;;;61.50;53.50;;;;;-2.20;61.35;102504.56;6154884;23;8835;-74
2021/01/21 09:23:22;;;;;;;;;67.00;53.00;;;;;-2.25;61.57;102497.03;6133874;23;8908;-73
2021/01/21 09:26:18;;;;;;;;;72.25;60.25;;;;;-2.34;62.33;102483.84;6152999;23;8813;-73
2021/01/21 09:29:14;;;;;;;;;61.50;48.50;;;;;-2.26;61.04;102491.81;6153179;23;8895;-72
2021/01/21 09:31:55;;;;;;;;;59.00;49.75;;;;;-2.24;61.41;102489.72;6131458;23;8844;-73
2021/01/21 09:34:23;;;;;;;;;52.25;48.00;;;;;-2.36;61.12;102484.06;6163023;23;8798;-73
2021/01/21 09:37:19;;;;;;;;;64.00;49.75;;;;;-2.37;61.83;102485.09;6153103;23;9614;-71
2021/01/21 09:39:48;;;;;;;;;65.00;54.25;;;;;-2.19;61.60;102479.13;6162922;23;8781;-73
2021/01/21 09:42:44;;;;;;;;;72.75;59.50;;;;;-2.08;61.41;102462.25;6152460;23;8818;-73
2021/01/21 09:45:12;;;;;;;;;63.50;54.50;;;;;-2.17;61.59;102468.06;6163006;23;8853;-71
2021/01/21 09:48:08;;;;;;;;;52.75;45.25;;;;;-1.97;61.67;102458.16;6153784;23;8809;-73
2021/01/21 09:50:40;;;;;;;;;55.00;48.75;;;;;-1.94;61.65;102454.19;6163596;23;8801;-73
2021/01/21 09:53:07;;;;;;;;;59.00;49.00;;;;;-1.85;60.85;102452.94;6138121;23;8801;-72
2021/01/21 09:56:03;;;;;;;;;72.50;57.50;;;;;-1.81;60.63;102449.63;6153799;23;8810;-72
2021/01/21 09:58:52;;;;;;;;;63.50;50.00;;;;;-1.76;60.51;102454.44;6133979;23;8825;-73
2021/01/21 10:01:47;;;;;;;;;70.00;57.75;;;;;-1.99;60.52;102452.94;6153555;23;8790;-73
2021/01/21 10:04:43;;;;;;;;;56.75;48.50;;;;;-1.86;60.40;102445.84;6134151;23;8778;-73
2021/01/21 10:07:38;;;;;;;;;60.25;48.75;;;;;-1.80;60.37;102445.88;6153212;23;8836;-73
2021/01/21 10:10:06;;;;;;;;;59.50;52.00;;;;;-1.83;60.45;102443.56;6163626;23;8832;-74
2021/01/21 10:13:02;;;;;;;;;62.50;53.00;;;;;-1.80;59.92;102435.00;6153905;23;8837;-73
2021/01/21 10:15:29;;;;;;;;;62.75;50.00;;;;;-1.82;60.51;102441.69;6155517;23;8825;-73
2021/01/21 10:18:25;;;;;;;;;71.00;57.00;;;;;-1.71;60.57;102433.78;6152801;23;8813;-73
2021/01/21 10:20:53;;;;;;;;;61.25;51.75;;;;;-1.76;59.66;102430.03;6137533;23;9707;-73
2021/01/21 10:23:24;;;;;;;;;52.50;47.25;;;;;-1.73;59.56;102429.59;6130442;23;8774;-73
2021/01/21 10:25:52;;;;;;;;;53.75;50.00;;;;;-1.79;59.67;102420.41;6163257;23;8860;-73
2021/01/21 10:28:48;;;;;;;;;70.75;56.50;;;;;-1.77;59.87;102412.06;6134009;23;8802;-73
2021/01/21 10:31:43;;;;;;;;;68.50;51.50;;;;;-1.83;60.31;102407.47;6153380;23;8883;-73
2021/01/21 10:34:11;;;;;;;;;72.00;57.50;;;;;-1.77;60.43;102412.88;6137950;23;8797;-72
2021/01/21 10:36:53;;;;;;;;;61.00;52.75;;;;;-1.75;60.72;102399.16;6153191;23;8834;-72
2021/01/21 10:39:21;;;;;;;;;32.25;32.25;;;;;-1.66;60.30;102400.59;6137751;23;8793;-72
2021/01/21 10:42:16;;;;;;;;;68.50;54.25;;;;;-1.70;60.68;102396.63;6133769;23;8856;-73
2021/01/21 10:44:43;;;;;;;;;61.75;51.75;;;;;-1.74;60.41;102398.09;6163503;23;8824;-72
2021/01/21 10:47:11;;;;;;;;;62.25;51.75;;;;;-1.72;59.84;102399.53;6162946;23;8806;-72
2021/01/21 10:49:38;;;;;;;;;61.50;52.25;;;;;-1.73;59.14;102394.34;6138034;23;8802;-73
2021/01/21 10:52:06;;;;;;;;;67.50;54.25;;;;;-1.53;59.60;102392.47;6163504;23;8805;-72
2021/01/21 10:54:33;;;;;;;;;58.75;51.75;;;;;-1.49;59.68;102379.31;6137848;23;8802;-73
2021/01/21 10:57:16;;;;;;;;;51.75;45.00;;;;;-1.47;59.94;102378.03;6154634;23;8829;-72
2021/01/21 10:59:44;;;;;;;;;61.50;52.00;;;;;-1.49;60.09;102374.72;6163472;23;8809;-72
2021/01/21 11:02:39;;;;;;;;;52.75;47.75;;;;;-1.46;59.42;102379.75;6153606;23;8817;-72
2021/01/21 11:05:07;;;;;;;;;55.25;48.50;;;;;-1.47;59.09;102377.22;6163866;23;8884;-72
2021/01/21 11:07:35;;;;;;;;;52.75;45.75;;;;;-1.66;59.93;102376.19;6154545;23;8836;-72
2021/01/21 11:10:02;;;;;;;;;57.25;48.00;;;;;-1.26;59.64;102366.13;6163910;23;8861;-72
2021/01/21 11:12:47;;;;;;;;;52.00;45.75;;;;;-1.44;59.28;102366.78;6155271;23;8817;-72
2021/01/21 11:15:17;;;;;;;;;52.50;48.00;;;;;-1.32;59.09;102371.56;6162882;23;8805;-72
2021/01/21 11:17:46;;;;;;;;;58.00;48.50;;;;;-1.24;59.38;102364.03;6137227;23;8790;-72
2021/01/21 11:20:14;;;;;;;;;62.00;52.00;;;;;-1.27;59.22;102360.91;6162701;23;8805;-72
2021/01/21 11:22:41;;;;;;;;;56.00;47.50;;;;;-1.46;60.02;102355.31;6162759;23;8825;-72
2021/01/21 11:25:14;;;;;;;;;61.50;50.50;;;;;-1.26;59.21;102357.97;6162256;23;8798;-73
2021/01/21 11:28:20;;;;;;;;;44.00;41.00;;;;;-1.47;59.90;102355.50;6153316;23;8899;-72
2021/01/21 11:30:50;;;;;;;;;51.75;48.25;;;;;-1.32;59.63;102358.81;6130582;23;9472;-72
2021/01/21 11:33:18;;;;;;;;;48.75;45.25;;;;;-1.54;60.52;102357.38;6139182;23;8809;-73
2021/01/21 11:36:13;;;;;;;;;51.25;45.25;;;;;-1.36;60.22;102352.16;6134858;23;8809;-72
2021/01/21 11:38:41;;;;;;;;;56.75;49.25;;;;;-1.34;59.38;102352.78;6164484;23;8790;-72
2021/01/21 11:41:09;;;;;;;;;60.00;53.00;;;;;-1.42;59.73;102350.28;6162296;23;8790;-72
2021/01/21 11:43:38;;;;;;;;;69.00;54.50;;;;;-1.30;59.94;102362.19;6138966;23;8840;-73
2021/01/21 11:46:34;;;;;;;;;65.00;51.50;;;;;-1.26;60.57;102355.28;6154665;23;8822;-73
2021/01/21 11:49:16;;;;;;;;;54.25;47.50;;;;;-1.28;59.93;102351.09;6155345;23;8801;-72
2021/01/21 12:30:56;;;;;;;;;44.50;36.00;;;;;-1.05;61.06;102321.59;6155444;23;8749;-73
2021/01/21 12:33:52;;;;;;;;;67.00;53.50;;;;;-0.83;60.57;102311.28;6135381;23;9520;-73
2021/01/21 12:36:32;;;;;;;;;69.50;58.50;;;;;-0.73;59.91;102308.94;6140717;23;8801;-72
2021/01/21 12:38:59;;;;;;;;;69.00;56.50;;;;;-0.79;60.23;102311.66;6164281;23;9556;-72
2021/01/21 12:41:41;;;;;;;;;70.00;60.00;;;;;-0.68;60.05;102297.44;6155748;23;8836;-73
2021/01/21 12:44:36;;;;;;;;;65.75;56.50;;;;;-0.64;60.35;102293.22;6154312;23;8809;-73
2021/01/21 12:47:04;;;;;;;;;76.75;61.25;;;;;-0.67;60.40;102290.94;6163578;23;8840;-73
2021/01/21 12:50:00;;;;;;;;;58.00;49.00;;;;;-0.81;60.53;102284.72;6154752;23;8802;-73
2021/01/21 12:52:55;;;;;;;;;65.00;53.50;;;;;-0.73;60.44;102276.31;6154004;23;8832;-73
2021/01/21 12:55:45;;;;;;;;;58.75;50.00;;;;;-0.70;60.38;102272.34;6156159;23;8883;-73
2021/01/21 12:58:40;;;;;;;;;69.75;56.75;;;;;-0.81;59.95;102273.88;6134178;23;8810;-74
2021/01/21 13:01:37;;;;;;;;;56.50;49.75;;;;;-0.84;60.81;102271.59;6154331;23;9564;-73
2021/01/21 13:04:33;;;;;;;;;68.00;53.25;;;;;-0.78;60.40;102276.13;6134404;23;8805;-73
2021/01/21 13:07:28;;;;;;;;;56.25;46.50;;;;;-0.76;61.18;102282.22;6153989;23;8855;-74
2021/01/21 13:10:24;;;;;;;;;49.75;42.75;;;;;-0.82;60.75;102277.63;6134530;23;8809;-73
2021/01/21 13:13:19;;;;;;;;;74.50;58.25;;;;;-0.71;61.05;102278.81;6134099;23;8806;-73
2021/01/21 13:16:09;;;;;;;;;66.25;53.50;;;;;-0.54;60.67;102274.53;6154226;23;8840;-74
2021/01/21 13:18:45;;;;;;;;;69.50;55.00;;;;;-0.51;60.40;102281.44;6163972;23;8832;-73
2021/01/21 13:21:34;;;;;;;;;66.25;54.75;;;;;-0.44;60.14;102280.34;6128692;23;8845;-72
2021/01/21 13:24:06;;;;;;;;;61.75;53.25;;;;;-0.39;60.08;102290.53;6139194;23;8888;-73
2021/01/21 13:26:51;;;;;;;;;77.75;61.00;;;;;-0.46;60.10;102290.63;6153439;23;8859;-73